Ossineke, Michigan
Current Conditions -  °F | °C
As of 9:54 AM on Monday 22 Dec 2014 (Local Time) from KAPN Reporting Station
Overcast Overcast  
Wind Chill: 24°   Ceiling: 2300
Heat Index: 31°   Visibility: 9mi
Dew Point: 25°   Wind: 7mph
Humidity: 79%   Direction: 160°SSE
Pressure: 30.11"   Gusts: NA
Location:  44.9°N, 83.44°W
Report Text: KAPN 221454Z AUTO 16006KT 9SM OVC023 M01/M04 A3011 RMK AO2 SLP205 T10061039 56004
Loading
Personal Weather Stations






























Interactive Weather Map New forecast layout! Learn more

10-Day Weather Forecast

Advertisements
Track Severe Weather on mobile